sensor_id;sensor_type;location;lat;lon;timestamp;P1;durP1;ratioP1;P2;durP2;ratioP2
20814;SDS011;10568;48.176;16.316;2023-02-15T00:01:44;17.57;;;8.77;;
20814;SDS011;10568;48.176;16.316;2023-02-15T00:04:14;17.50;;;9.60;;
20814;SDS011;10568;48.176;16.316;2023-02-15T00:06:41;17.97;;;9.10;;
20814;SDS011;10568;48.176;16.316;2023-02-15T00:09:07;17.53;;;8.90;;
20814;SDS011;10568;48.176;16.316;2023-02-15T00:11:35;20.83;;;10.17;;
20814;SDS011;10568;48.176;16.316;2023-02-15T00:14:19;17.33;;;8.57;;
20814;SDS011;10568;48.176;16.316;2023-02-15T00:16:49;17.37;;;8.57;;
20814;SDS011;10568;48.176;16.316;2023-02-15T00:19:17;23.80;;;10.37;;
20814;SDS011;10568;48.176;16.316;2023-02-15T00:21:45;15.70;;;8.53;;
20814;SDS011;10568;48.176;16.316;2023-02-15T00:24:12;16.53;;;8.67;;
20814;SDS011;10568;48.176;16.316;2023-02-15T00:26:40;19.10;;;9.40;;
20814;SDS011;10568;48.176;16.316;2023-02-15T00:29:07;18.37;;;9.57;;
20814;SDS011;10568;48.176;16.316;2023-02-15T00:31:34;18.47;;;9.37;;
20814;SDS011;10568;48.176;16.316;2023-02-15T00:34:01;18.90;;;9.07;;
20814;SDS011;10568;48.176;16.316;2023-02-15T00:36:36;18.30;;;9.53;;
20814;SDS011;10568;48.176;16.316;2023-02-15T00:39:02;21.77;;;10.50;;
20814;SDS011;10568;48.176;16.316;2023-02-15T00:41:32;19.87;;;10.40;;
20814;SDS011;10568;48.176;16.316;2023-02-15T00:43:58;18.70;;;9.97;;
20814;SDS011;10568;48.176;16.316;2023-02-15T00:46:24;16.70;;;8.80;;
20814;SDS011;10568;48.176;16.316;2023-02-15T00:48:50;22.30;;;8.90;;
20814;SDS011;10568;48.176;16.316;2023-02-15T00:51:16;17.83;;;9.57;;
20814;SDS011;10568;48.176;16.316;2023-02-15T00:53:42;18.37;;;8.97;;
20814;SDS011;10568;48.176;16.316;2023-02-15T00:56:09;19.40;;;9.67;;
20814;SDS011;10568;48.176;16.316;2023-02-15T00:58:36;17.83;;;9.33;;
20814;SDS011;10568;48.176;16.316;2023-02-15T01:01:05;20.23;;;9.47;;
20814;SDS011;10568;48.176;16.316;2023-02-15T01:03:34;18.80;;;9.03;;
20814;SDS011;10568;48.176;16.316;2023-02-15T01:06:00;19.07;;;9.13;;
20814;SDS011;10568;48.176;16.316;2023-02-15T01:08:27;18.73;;;8.83;;
20814;SDS011;10568;48.176;16.316;2023-02-15T01:10:53;18.47;;;9.13;;
20814;SDS011;10568;48.176;16.316;2023-02-15T01:13:19;18.33;;;9.47;;
20814;SDS011;10568;48.176;16.316;2023-02-15T01:15:45;18.60;;;9.50;;
20814;SDS011;10568;48.176;16.316;2023-02-15T01:18:16;15.50;;;8.77;;
20814;SDS011;10568;48.176;16.316;2023-02-15T01:20:42;18.13;;;9.63;;
20814;SDS011;10568;48.176;16.316;2023-02-15T01:23:08;15.57;;;8.63;;
20814;SDS011;10568;48.176;16.316;2023-02-15T01:25:34;20.60;;;9.60;;
20814;SDS011;10568;48.176;16.316;2023-02-15T01:28:00;16.80;;;9.23;;
20814;SDS011;10568;48.176;16.316;2023-02-15T01:30:26;18.50;;;9.57;;
20814;SDS011;10568;48.176;16.316;2023-02-15T01:32:52;16.37;;;8.67;;
20814;SDS011;10568;48.176;16.316;2023-02-15T01:35:18;15.77;;;8.83;;
20814;SDS011;10568;48.176;16.316;2023-02-15T01:37:44;17.00;;;9.23;;
20814;SDS011;10568;48.176;16.316;2023-02-15T01:40:14;19.30;;;9.43;;
20814;SDS011;10568;48.176;16.316;2023-02-15T01:42:41;17.13;;;9.50;;
20814;SDS011;10568;48.176;16.316;2023-02-15T01:47:54;18.90;;;8.70;;
20814;SDS011;10568;48.176;16.316;2023-02-15T01:50:30;19.30;;;9.70;;
20814;SDS011;10568;48.176;16.316;2023-02-15T01:55:48;18.00;;;9.63;;
20814;SDS011;10568;48.176;16.316;2023-02-15T01:58:18;20.50;;;8.87;;
20814;SDS011;10568;48.176;16.316;2023-02-15T02:00:46;18.13;;;9.53;;
20814;SDS011;10568;48.176;16.316;2023-02-15T02:03:11;19.07;;;9.47;;
20814;SDS011;10568;48.176;16.316;2023-02-15T02:05:38;18.67;;;9.00;;
20814;SDS011;10568;48.176;16.316;2023-02-15T02:08:05;19.40;;;9.57;;
20814;SDS011;10568;48.176;16.316;2023-02-15T02:10:34;19.57;;;9.80;;
20814;SDS011;10568;48.176;16.316;2023-02-15T02:13:04;21.03;;;8.93;;
20814;SDS011;10568;48.176;16.316;2023-02-15T02:15:34;18.90;;;9.13;;
20814;SDS011;10568;48.176;16.316;2023-02-15T02:18:34;16.70;;;8.33;;
20814;SDS011;10568;48.176;16.316;2023-02-15T02:21:12;15.63;;;7.90;;
20814;SDS011;10568;48.176;16.316;2023-02-15T02:35:01;19.93;;;8.83;;
20814;SDS011;10568;48.176;16.316;2023-02-15T02:38:27;17.57;;;9.00;;
20814;SDS011;10568;48.176;16.316;2023-02-15T02:43:25;19.33;;;8.80;;
20814;SDS011;10568;48.176;16.316;2023-02-15T02:48:50;14.47;;;8.33;;
20814;SDS011;10568;48.176;16.316;2023-02-15T02:51:16;19.50;;;9.20;;
20814;SDS011;10568;48.176;16.316;2023-02-15T02:53:47;18.97;;;9.33;;
20814;SDS011;10568;48.176;16.316;2023-02-15T02:56:24;17.03;;;8.73;;
20814;SDS011;10568;48.176;16.316;2023-02-15T02:58:57;16.23;;;9.27;;
20814;SDS011;10568;48.176;16.316;2023-02-15T03:03:59;17.83;;;8.80;;
20814;SDS011;10568;48.176;16.316;2023-02-15T03:06:31;15.60;;;9.17;;
20814;SDS011;10568;48.176;16.316;2023-02-15T03:09:27;19.67;;;9.63;;
20814;SDS011;10568;48.176;16.316;2023-02-15T03:12:00;17.97;;;9.17;;
20814;SDS011;10568;48.176;16.316;2023-02-15T03:14:28;17.80;;;8.97;;
20814;SDS011;10568;48.176;16.316;2023-02-15T03:16:54;18.03;;;9.40;;
20814;SDS011;10568;48.176;16.316;2023-02-15T03:19:22;17.70;;;8.53;;
20814;SDS011;10568;48.176;16.316;2023-02-15T03:22:03;14.87;;;8.80;;
20814;SDS011;10568;48.176;16.316;2023-02-15T03:24:43;19.43;;;8.90;;
20814;SDS011;10568;48.176;16.316;2023-02-15T03:27:20;19.23;;;9.00;;
20814;SDS011;10568;48.176;16.316;2023-02-15T03:29:51;16.87;;;8.83;;
20814;SDS011;10568;48.176;16.316;2023-02-15T03:32:20;16.80;;;8.67;;
20814;SDS011;10568;48.176;16.316;2023-02-15T03:34:48;17.63;;;8.80;;
20814;SDS011;10568;48.176;16.316;2023-02-15T03:37:36;18.27;;;9.37;;
20814;SDS011;10568;48.176;16.316;2023-02-15T03:40:16;20.40;;;9.23;;
20814;SDS011;10568;48.176;16.316;2023-02-15T03:43:16;20.37;;;9.80;;
20814;SDS011;10568;48.176;16.316;2023-02-15T03:45:50;17.60;;;9.03;;
20814;SDS011;10568;48.176;16.316;2023-02-15T03:48:24;20.07;;;9.70;;
20814;SDS011;10568;48.176;16.316;2023-02-15T03:51:02;21.43;;;10.30;;
20814;SDS011;10568;48.176;16.316;2023-02-15T03:53:52;15.27;;;8.43;;
20814;SDS011;10568;48.176;16.316;2023-02-15T03:56:20;23.73;;;10.73;;
20814;SDS011;10568;48.176;16.316;2023-02-15T03:58:46;20.03;;;9.70;;
20814;SDS011;10568;48.176;16.316;2023-02-15T04:04:25;21.57;;;10.13;;
20814;SDS011;10568;48.176;16.316;2023-02-15T04:07:02;21.27;;;10.60;;
20814;SDS011;10568;48.176;16.316;2023-02-15T04:09:29;18.80;;;9.20;;
20814;SDS011;10568;48.176;16.316;2023-02-15T04:12:14;20.60;;;10.03;;
20814;SDS011;10568;48.176;16.316;2023-02-15T04:14:39;20.60;;;10.80;;
20814;SDS011;10568;48.176;16.316;2023-02-15T04:17:24;20.50;;;9.67;;
20814;SDS011;10568;48.176;16.316;2023-02-15T04:19:50;20.77;;;10.23;;
20814;SDS011;10568;48.176;16.316;2023-02-15T04:22:34;18.70;;;9.57;;
20814;SDS011;10568;48.176;16.316;2023-02-15T04:25:18;19.87;;;10.57;;
20814;SDS011;10568;48.176;16.316;2023-02-15T04:27:47;20.87;;;10.87;;
20814;SDS011;10568;48.176;16.316;2023-02-15T04:30:15;17.60;;;9.43;;
20814;SDS011;10568;48.176;16.316;2023-02-15T04:32:43;19.77;;;9.67;;
20814;SDS011;10568;48.176;16.316;2023-02-15T04:35:09;18.10;;;10.17;;
20814;SDS011;10568;48.176;16.316;2023-02-15T04:37:36;21.73;;;10.37;;
20814;SDS011;10568;48.176;16.316;2023-02-15T04:40:03;18.20;;;9.30;;
20814;SDS011;10568;48.176;16.316;2023-02-15T04:42:31;17.43;;;8.70;;
20814;SDS011;10568;48.176;16.316;2023-02-15T04:44:57;19.63;;;10.20;;
20814;SDS011;10568;48.176;16.316;2023-02-15T04:47:23;17.73;;;9.30;;
20814;SDS011;10568;48.176;16.316;2023-02-15T04:49:48;21.70;;;9.87;;
20814;SDS011;10568;48.176;16.316;2023-02-15T04:52:14;21.17;;;10.23;;
20814;SDS011;10568;48.176;16.316;2023-02-15T04:54:42;19.07;;;9.00;;
20814;SDS011;10568;48.176;16.316;2023-02-15T04:57:08;18.70;;;9.37;;
20814;SDS011;10568;48.176;16.316;2023-02-15T04:59:34;20.27;;;9.33;;
20814;SDS011;10568;48.176;16.316;2023-02-15T05:02:00;19.63;;;9.40;;
20814;SDS011;10568;48.176;16.316;2023-02-15T05:04:26;21.53;;;9.70;;
20814;SDS011;10568;48.176;16.316;2023-02-15T05:06:52;19.73;;;10.23;;
20814;SDS011;10568;48.176;16.316;2023-02-15T05:09:18;20.00;;;9.53;;
20814;SDS011;10568;48.176;16.316;2023-02-15T05:11:44;18.60;;;9.93;;
20814;SDS011;10568;48.176;16.316;2023-02-15T05:14:10;17.60;;;9.73;;
20814;SDS011;10568;48.176;16.316;2023-02-15T05:16:36;15.90;;;8.33;;
20814;SDS011;10568;48.176;16.316;2023-02-15T05:19:01;21.13;;;9.83;;
20814;SDS011;10568;48.176;16.316;2023-02-15T05:21:27;19.50;;;8.90;;
20814;SDS011;10568;48.176;16.316;2023-02-15T05:23:53;21.40;;;10.03;;
20814;SDS011;10568;48.176;16.316;2023-02-15T05:26:20;19.33;;;10.67;;
20814;SDS011;10568;48.176;16.316;2023-02-15T05:29:06;18.17;;;8.97;;
20814;SDS011;10568;48.176;16.316;2023-02-15T05:31:32;22.07;;;10.57;;
20814;SDS011;10568;48.176;16.316;2023-02-15T05:33:58;20.43;;;10.00;;
20814;SDS011;10568;48.176;16.316;2023-02-15T05:36:24;23.27;;;10.80;;
20814;SDS011;10568;48.176;16.316;2023-02-15T05:38:50;22.37;;;9.77;;
20814;SDS011;10568;48.176;16.316;2023-02-15T05:41:16;18.77;;;9.40;;
20814;SDS011;10568;48.176;16.316;2023-02-15T05:43:42;21.90;;;9.60;;
20814;SDS011;10568;48.176;16.316;2023-02-15T05:46:08;18.47;;;9.97;;
20814;SDS011;10568;48.176;16.316;2023-02-15T05:48:35;17.53;;;9.00;;
20814;SDS011;10568;48.176;16.316;2023-02-15T05:51:02;18.77;;;9.43;;
20814;SDS011;10568;48.176;16.316;2023-02-15T05:53:34;19.93;;;9.90;;
20814;SDS011;10568;48.176;16.316;2023-02-15T05:56:02;20.87;;;9.77;;
20814;SDS011;10568;48.176;16.316;2023-02-15T05:58:30;16.07;;;8.77;;
20814;SDS011;10568;48.176;16.316;2023-02-15T06:00:57;18.87;;;8.87;;
20814;SDS011;10568;48.176;16.316;2023-02-15T06:03:24;18.00;;;8.67;;
20814;SDS011;10568;48.176;16.316;2023-02-15T06:05:50;17.57;;;8.43;;
20814;SDS011;10568;48.176;16.316;2023-02-15T06:08:17;19.47;;;9.13;;
20814;SDS011;10568;48.176;16.316;2023-02-15T06:10:45;16.90;;;8.27;;
20814;SDS011;10568;48.176;16.316;2023-02-15T06:13:11;17.93;;;9.03;;
20814;SDS011;10568;48.176;16.316;2023-02-15T06:15:37;19.53;;;10.00;;
20814;SDS011;10568;48.176;16.316;2023-02-15T06:18:03;21.37;;;9.73;;
20814;SDS011;10568;48.176;16.316;2023-02-15T06:20:29;20.67;;;9.70;;
20814;SDS011;10568;48.176;16.316;2023-02-15T06:22:55;17.97;;;9.83;;
20814;SDS011;10568;48.176;16.316;2023-02-15T06:25:20;20.10;;;9.77;;
20814;SDS011;10568;48.176;16.316;2023-02-15T06:27:46;19.53;;;8.40;;
20814;SDS011;10568;48.176;16.316;2023-02-15T06:30:12;21.47;;;9.63;;
20814;SDS011;10568;48.176;16.316;2023-02-15T06:32:38;19.13;;;9.70;;
20814;SDS011;10568;48.176;16.316;2023-02-15T06:35:05;15.33;;;8.50;;
20814;SDS011;10568;48.176;16.316;2023-02-15T06:37:31;18.30;;;9.10;;
20814;SDS011;10568;48.176;16.316;2023-02-15T06:39:57;20.47;;;10.47;;
20814;SDS011;10568;48.176;16.316;2023-02-15T06:42:23;17.73;;;8.70;;
20814;SDS011;10568;48.176;16.316;2023-02-15T06:44:49;17.37;;;9.63;;
20814;SDS011;10568;48.176;16.316;2023-02-15T06:47:15;19.70;;;8.83;;
20814;SDS011;10568;48.176;16.316;2023-02-15T06:49:40;19.63;;;8.77;;
20814;SDS011;10568;48.176;16.316;2023-02-15T06:52:06;18.77;;;8.47;;
20814;SDS011;10568;48.176;16.316;2023-02-15T06:54:32;17.03;;;8.17;;
20814;SDS011;10568;48.176;16.316;2023-02-15T06:56:58;18.33;;;8.97;;
20814;SDS011;10568;48.176;16.316;2023-02-15T06:59:24;22.77;;;9.50;;
20814;SDS011;10568;48.176;16.316;2023-02-15T07:01:49;17.50;;;8.50;;
20814;SDS011;10568;48.176;16.316;2023-02-15T07:04:15;19.10;;;9.70;;
20814;SDS011;10568;48.176;16.316;2023-02-15T07:06:41;22.47;;;9.73;;
20814;SDS011;10568;48.176;16.316;2023-02-15T07:09:06;18.13;;;8.63;;
20814;SDS011;10568;48.176;16.316;2023-02-15T07:11:33;18.90;;;9.60;;
20814;SDS011;10568;48.176;16.316;2023-02-15T07:14:17;20.20;;;8.73;;
20814;SDS011;10568;48.176;16.316;2023-02-15T07:16:43;18.83;;;8.43;;
20814;SDS011;10568;48.176;16.316;2023-02-15T07:19:09;20.17;;;9.90;;
20814;SDS011;10568;48.176;16.316;2023-02-15T07:21:35;20.93;;;9.40;;
20814;SDS011;10568;48.176;16.316;2023-02-15T07:24:01;20.30;;;9.53;;
20814;SDS011;10568;48.176;16.316;2023-02-15T07:26:27;20.87;;;9.70;;
20814;SDS011;10568;48.176;16.316;2023-02-15T07:28:53;17.60;;;9.03;;
20814;SDS011;10568;48.176;16.316;2023-02-15T07:31:19;20.20;;;9.60;;
20814;SDS011;10568;48.176;16.316;2023-02-15T07:33:45;20.33;;;9.73;;
20814;SDS011;10568;48.176;16.316;2023-02-15T07:36:20;19.27;;;9.80;;
20814;SDS011;10568;48.176;16.316;2023-02-15T07:38:46;20.33;;;9.80;;
20814;SDS011;10568;48.176;16.316;2023-02-15T07:41:12;17.87;;;8.53;;
20814;SDS011;10568;48.176;16.316;2023-02-15T07:43:40;19.73;;;10.30;;
20814;SDS011;10568;48.176;16.316;2023-02-15T07:46:08;22.07;;;10.33;;
20814;SDS011;10568;48.176;16.316;2023-02-15T07:48:36;20.17;;;9.93;;
20814;SDS011;10568;48.176;16.316;2023-02-15T07:51:04;19.00;;;9.63;;
20814;SDS011;10568;48.176;16.316;2023-02-15T07:53:32;17.77;;;9.83;;
20814;SDS011;10568;48.176;16.316;2023-02-15T07:56:03;20.57;;;9.40;;
20814;SDS011;10568;48.176;16.316;2023-02-15T07:58:31;23.50;;;10.10;;
20814;SDS011;10568;48.176;16.316;2023-02-15T08:01:16;18.77;;;9.57;;
20814;SDS011;10568;48.176;16.316;2023-02-15T08:03:51;21.20;;;9.17;;
20814;SDS011;10568;48.176;16.316;2023-02-15T08:06:18;18.63;;;9.47;;
20814;SDS011;10568;48.176;16.316;2023-02-15T08:08:44;19.17;;;9.87;;
20814;SDS011;10568;48.176;16.316;2023-02-15T08:11:23;19.47;;;9.77;;
20814;SDS011;10568;48.176;16.316;2023-02-15T08:13:55;19.10;;;9.53;;
20814;SDS011;10568;48.176;16.316;2023-02-15T08:16:28;17.50;;;8.90;;
20814;SDS011;10568;48.176;16.316;2023-02-15T08:18:55;18.83;;;9.67;;
20814;SDS011;10568;48.176;16.316;2023-02-15T08:21:22;21.30;;;9.83;;
20814;SDS011;10568;48.176;16.316;2023-02-15T08:23:53;16.40;;;9.20;;
20814;SDS011;10568;48.176;16.316;2023-02-15T08:26:20;20.00;;;9.53;;
20814;SDS011;10568;48.176;16.316;2023-02-15T08:28:46;19.97;;;9.73;;
20814;SDS011;10568;48.176;16.316;2023-02-15T08:31:14;18.97;;;9.63;;
20814;SDS011;10568;48.176;16.316;2023-02-15T08:33:41;19.37;;;9.77;;
20814;SDS011;10568;48.176;16.316;2023-02-15T08:36:09;20.13;;;10.60;;
20814;SDS011;10568;48.176;16.316;2023-02-15T08:38:37;19.10;;;9.47;;
20814;SDS011;10568;48.176;16.316;2023-02-15T08:41:17;22.07;;;10.37;;
20814;SDS011;10568;48.176;16.316;2023-02-15T08:43:45;22.03;;;10.30;;
20814;SDS011;10568;48.176;16.316;2023-02-15T08:46:13;19.27;;;9.53;;
20814;SDS011;10568;48.176;16.316;2023-02-15T08:48:41;19.30;;;9.57;;
20814;SDS011;10568;48.176;16.316;2023-02-15T08:51:08;16.83;;;9.00;;
20814;SDS011;10568;48.176;16.316;2023-02-15T08:53:36;18.47;;;9.23;;
20814;SDS011;10568;48.176;16.316;2023-02-15T08:56:03;16.77;;;9.33;;
20814;SDS011;10568;48.176;16.316;2023-02-15T08:58:29;23.87;;;10.17;;
20814;SDS011;10568;48.176;16.316;2023-02-15T09:00:55;20.20;;;10.33;;
20814;SDS011;10568;48.176;16.316;2023-02-15T09:03:22;17.63;;;9.47;;
20814;SDS011;10568;48.176;16.316;2023-02-15T09:05:48;21.10;;;9.73;;
20814;SDS011;10568;48.176;16.316;2023-02-15T09:08:14;21.23;;;10.13;;
20814;SDS011;10568;48.176;16.316;2023-02-15T09:10:40;19.90;;;9.90;;
20814;SDS011;10568;48.176;16.316;2023-02-15T09:13:06;22.57;;;10.43;;
20814;SDS011;10568;48.176;16.316;2023-02-15T09:15:32;22.63;;;10.13;;
20814;SDS011;10568;48.176;16.316;2023-02-15T09:17:58;21.97;;;10.10;;
20814;SDS011;10568;48.176;16.316;2023-02-15T09:20:31;21.20;;;10.00;;
20814;SDS011;10568;48.176;16.316;2023-02-15T09:23:00;20.73;;;10.10;;
20814;SDS011;10568;48.176;16.316;2023-02-15T09:25:26;22.50;;;10.87;;
20814;SDS011;10568;48.176;16.316;2023-02-15T09:27:52;24.27;;;9.77;;
20814;SDS011;10568;48.176;16.316;2023-02-15T09:30:19;20.83;;;9.63;;
20814;SDS011;10568;48.176;16.316;2023-02-15T09:32:44;21.27;;;10.37;;
20814;SDS011;10568;48.176;16.316;2023-02-15T09:35:11;18.63;;;10.03;;
20814;SDS011;10568;48.176;16.316;2023-02-15T09:37:37;19.67;;;10.03;;
20814;SDS011;10568;48.176;16.316;2023-02-15T09:40:03;20.67;;;9.77;;
20814;SDS011;10568;48.176;16.316;2023-02-15T10:01:45;21.13;;;11.13;;
20814;SDS011;10568;48.176;16.316;2023-02-15T10:04:40;21.77;;;10.73;;
20814;SDS011;10568;48.176;16.316;2023-02-15T10:07:21;20.30;;;9.67;;
20814;SDS011;10568;48.176;16.316;2023-02-15T10:09:58;22.00;;;10.47;;
20814;SDS011;10568;48.176;16.316;2023-02-15T10:15:47;20.17;;;11.37;;
20814;SDS011;10568;48.176;16.316;2023-02-15T10:18:31;19.37;;;10.23;;
20814;SDS011;10568;48.176;16.316;2023-02-15T10:26:53;22.73;;;10.53;;
20814;SDS011;10568;48.176;16.316;2023-02-15T10:29:37;17.47;;;9.43;;
20814;SDS011;10568;48.176;16.316;2023-02-15T10:34:51;23.73;;;10.80;;
20814;SDS011;10568;48.176;16.316;2023-02-15T10:40:22;22.27;;;10.77;;
20814;SDS011;10568;48.176;16.316;2023-02-15T10:43:10;24.67;;;11.27;;
20814;SDS011;10568;48.176;16.316;2023-02-15T10:46:03;21.27;;;10.50;;
20814;SDS011;10568;48.176;16.316;2023-02-15T10:56:46;21.17;;;11.10;;
20814;SDS011;10568;48.176;16.316;2023-02-15T10:59:39;21.70;;;11.07;;
20814;SDS011;10568;48.176;16.316;2023-02-15T11:05:34;23.33;;;10.73;;
20814;SDS011;10568;48.176;16.316;2023-02-15T11:08:02;22.37;;;11.40;;
20814;SDS011;10568;48.176;16.316;2023-02-15T11:10:51;20.67;;;10.37;;
20814;SDS011;10568;48.176;16.316;2023-02-15T11:13:20;21.10;;;11.10;;
20814;SDS011;10568;48.176;16.316;2023-02-15T11:15:53;24.13;;;10.73;;
20814;SDS011;10568;48.176;16.316;2023-02-15T11:18:34;21.17;;;10.30;;
20814;SDS011;10568;48.176;16.316;2023-02-15T11:21:09;21.87;;;10.17;;
20814;SDS011;10568;48.176;16.316;2023-02-15T11:23:47;23.43;;;11.40;;
20814;SDS011;10568;48.176;16.316;2023-02-15T11:29:08;21.70;;;9.90;;
20814;SDS011;10568;48.176;16.316;2023-02-15T11:31:41;20.20;;;9.97;;
20814;SDS011;10568;48.176;16.316;2023-02-15T11:34:18;21.10;;;10.53;;
20814;SDS011;10568;48.176;16.316;2023-02-15T11:36:52;23.03;;;10.93;;
20814;SDS011;10568;48.176;16.316;2023-02-15T11:39:21;23.87;;;11.03;;
20814;SDS011;10568;48.176;16.316;2023-02-15T11:41:52;25.60;;;11.90;;
20814;SDS011;10568;48.176;16.316;2023-02-15T11:44:24;24.17;;;11.80;;
20814;SDS011;10568;48.176;16.316;2023-02-15T11:46:56;24.33;;;10.93;;
20814;SDS011;10568;48.176;16.316;2023-02-15T11:49:27;21.23;;;10.70;;
20814;SDS011;10568;48.176;16.316;2023-02-15T11:51:59;20.30;;;10.27;;
20814;SDS011;10568;48.176;16.316;2023-02-15T11:54:29;21.37;;;9.97;;
20814;SDS011;10568;48.176;16.316;2023-02-15T11:56:58;23.27;;;10.77;;
20814;SDS011;10568;48.176;16.316;2023-02-15T11:59:36;20.63;;;9.87;;
20814;SDS011;10568;48.176;16.316;2023-02-15T12:02:20;22.07;;;9.97;;
20814;SDS011;10568;48.176;16.316;2023-02-15T12:05:03;21.37;;;10.87;;
20814;SDS011;10568;48.176;16.316;2023-02-15T12:07:40;23.90;;;11.10;;
20814;SDS011;10568;48.176;16.316;2023-02-15T12:10:21;21.13;;;10.60;;
20814;SDS011;10568;48.176;16.316;2023-02-15T12:13:10;24.00;;;11.17;;
20814;SDS011;10568;48.176;16.316;2023-02-15T12:15:41;20.53;;;9.87;;
20814;SDS011;10568;48.176;16.316;2023-02-15T12:24:17;24.37;;;11.03;;
20814;SDS011;10568;48.176;16.316;2023-02-15T12:27:02;22.37;;;10.23;;
20814;SDS011;10568;48.176;16.316;2023-02-15T12:29:31;25.60;;;11.23;;
20814;SDS011;10568;48.176;16.316;2023-02-15T12:32:22;20.90;;;10.30;;
20814;SDS011;10568;48.176;16.316;2023-02-15T12:34:50;23.30;;;11.10;;
20814;SDS011;10568;48.176;16.316;2023-02-15T12:37:23;25.70;;;12.23;;
20814;SDS011;10568;48.176;16.316;2023-02-15T12:39:54;22.13;;;10.83;;
20814;SDS011;10568;48.176;16.316;2023-02-15T12:42:21;20.87;;;11.20;;
20814;SDS011;10568;48.176;16.316;2023-02-15T12:44:56;22.77;;;11.13;;
20814;SDS011;10568;48.176;16.316;2023-02-15T12:47:24;21.67;;;10.07;;
20814;SDS011;10568;48.176;16.316;2023-02-15T12:50:05;21.10;;;10.20;;
20814;SDS011;10568;48.176;16.316;2023-02-15T12:52:36;19.90;;;10.00;;
20814;SDS011;10568;48.176;16.316;2023-02-15T13:00:47;22.37;;;11.53;;
20814;SDS011;10568;48.176;16.316;2023-02-15T13:03:16;25.07;;;11.73;;
20814;SDS011;10568;48.176;16.316;2023-02-15T13:05:45;25.93;;;12.10;;
20814;SDS011;10568;48.176;16.316;2023-02-15T13:08:26;22.47;;;11.83;;
20814;SDS011;10568;48.176;16.316;2023-02-15T13:11:11;22.13;;;11.17;;
20814;SDS011;10568;48.176;16.316;2023-02-15T13:13:59;28.07;;;12.13;;
20814;SDS011;10568;48.176;16.316;2023-02-15T13:16:34;22.30;;;11.33;;
20814;SDS011;10568;48.176;16.316;2023-02-15T13:19:09;25.70;;;11.57;;
20814;SDS011;10568;48.176;16.316;2023-02-15T13:21:56;24.23;;;11.27;;
20814;SDS011;10568;48.176;16.316;2023-02-15T13:26:50;23.53;;;12.27;;
20814;SDS011;10568;48.176;16.316;2023-02-15T13:31:50;21.90;;;10.90;;
20814;SDS011;10568;48.176;16.316;2023-02-15T13:39:35;19.33;;;10.03;;
20814;SDS011;10568;48.176;16.316;2023-02-15T13:42:07;20.87;;;11.00;;
20814;SDS011;10568;48.176;16.316;2023-02-15T13:48:41;21.73;;;10.27;;
20814;SDS011;10568;48.176;16.316;2023-02-15T13:50:40;20.10;;;10.00;;
20814;SDS011;10568;48.176;16.316;2023-02-15T14:01:27;21.83;;;11.33;;
20814;SDS011;10568;48.176;16.316;2023-02-15T14:12:22;20.33;;;10.43;;
20814;SDS011;10568;48.176;16.316;2023-02-15T14:15:13;23.63;;;11.40;;
20814;SDS011;10568;48.176;16.316;2023-02-15T14:20:24;24.17;;;10.43;;
20814;SDS011;10568;48.176;16.316;2023-02-15T14:23:22;23.10;;;10.80;;
20814;SDS011;10568;48.176;16.316;2023-02-15T14:26:14;19.10;;;9.63;;
20814;SDS011;10568;48.176;16.316;2023-02-15T14:31:37;21.27;;;10.60;;
20814;SDS011;10568;48.176;16.316;2023-02-15T14:34:09;20.23;;;10.23;;
20814;SDS011;10568;48.176;16.316;2023-02-15T14:36:46;21.07;;;10.67;;
20814;SDS011;10568;48.176;16.316;2023-02-15T14:45:19;20.37;;;10.50;;
20814;SDS011;10568;48.176;16.316;2023-02-15T14:48:25;19.57;;;9.77;;
20814;SDS011;10568;48.176;16.316;2023-02-15T14:50:56;21.53;;;10.73;;
20814;SDS011;10568;48.176;16.316;2023-02-15T14:53:24;24.33;;;11.20;;
20814;SDS011;10568;48.176;16.316;2023-02-15T14:56:39;21.57;;;10.53;;
20814;SDS011;10568;48.176;16.316;2023-02-15T15:01:15;23.23;;;10.43;;
20814;SDS011;10568;48.176;16.316;2023-02-15T15:03:50;23.17;;;10.80;;
20814;SDS011;10568;48.176;16.316;2023-02-15T15:06:40;23.47;;;11.43;;
20814;SDS011;10568;48.176;16.316;2023-02-15T15:09:22;25.37;;;10.40;;
20814;SDS011;10568;48.176;16.316;2023-02-15T15:11:53;22.90;;;10.67;;
20814;SDS011;10568;48.176;16.316;2023-02-15T15:17:00;23.57;;;11.10;;
20814;SDS011;10568;48.176;16.316;2023-02-15T15:19:56;21.23;;;10.00;;
20814;SDS011;10568;48.176;16.316;2023-02-15T15:22:26;26.20;;;11.13;;
20814;SDS011;10568;48.176;16.316;2023-02-15T15:25:00;20.50;;;10.17;;
20814;SDS011;10568;48.176;16.316;2023-02-15T15:32:43;22.50;;;9.63;;
20814;SDS011;10568;48.176;16.316;2023-02-15T15:49:06;23.60;;;10.70;;
20814;SDS011;10568;48.176;16.316;2023-02-15T15:51:38;26.57;;;11.70;;
20814;SDS011;10568;48.176;16.316;2023-02-15T15:54:11;23.67;;;9.93;;
20814;SDS011;10568;48.176;16.316;2023-02-15T15:56:44;25.80;;;10.70;;
20814;SDS011;10568;48.176;16.316;2023-02-15T15:59:24;23.63;;;11.23;;
20814;SDS011;10568;48.176;16.316;2023-02-15T16:01:52;23.07;;;11.30;;
20814;SDS011;10568;48.176;16.316;2023-02-15T16:04:23;19.23;;;11.00;;
20814;SDS011;10568;48.176;16.316;2023-02-15T16:06:51;26.93;;;11.30;;
20814;SDS011;10568;48.176;16.316;2023-02-15T16:09:18;24.37;;;11.70;;
20814;SDS011;10568;48.176;16.316;2023-02-15T16:11:49;22.83;;;11.23;;
20814;SDS011;10568;48.176;16.316;2023-02-15T16:14:24;23.63;;;11.10;;
20814;SDS011;10568;48.176;16.316;2023-02-15T16:17:00;20.23;;;9.60;;
20814;SDS011;10568;48.176;16.316;2023-02-15T16:19:30;20.10;;;9.87;;
20814;SDS011;10568;48.176;16.316;2023-02-15T16:22:00;19.73;;;9.27;;
20814;SDS011;10568;48.176;16.316;2023-02-15T16:27:24;23.07;;;10.20;;
20814;SDS011;10568;48.176;16.316;2023-02-15T16:30:13;24.00;;;10.83;;
20814;SDS011;10568;48.176;16.316;2023-02-15T16:32:42;23.00;;;10.63;;
20814;SDS011;10568;48.176;16.316;2023-02-15T16:35:15;24.07;;;10.97;;
20814;SDS011;10568;48.176;16.316;2023-02-15T16:37:43;24.27;;;9.90;;
20814;SDS011;10568;48.176;16.316;2023-02-15T16:42:52;23.30;;;11.43;;
20814;SDS011;10568;48.176;16.316;2023-02-15T16:45:24;22.30;;;11.03;;
20814;SDS011;10568;48.176;16.316;2023-02-15T16:47:53;20.17;;;10.53;;
20814;SDS011;10568;48.176;16.316;2023-02-15T16:50:23;26.23;;;11.77;;
20814;SDS011;10568;48.176;16.316;2023-02-15T16:52:55;26.93;;;11.97;;
20814;SDS011;10568;48.176;16.316;2023-02-15T16:55:24;24.53;;;11.03;;
20814;SDS011;10568;48.176;16.316;2023-02-15T16:57:55;22.73;;;10.70;;
20814;SDS011;10568;48.176;16.316;2023-02-15T17:00:27;26.33;;;11.03;;
20814;SDS011;10568;48.176;16.316;2023-02-15T17:10:46;27.13;;;11.83;;
20814;SDS011;10568;48.176;16.316;2023-02-15T17:13:25;25.50;;;11.27;;
20814;SDS011;10568;48.176;16.316;2023-02-15T17:18:29;23.87;;;11.50;;
20814;SDS011;10568;48.176;16.316;2023-02-15T17:21:31;24.93;;;11.77;;
20814;SDS011;10568;48.176;16.316;2023-02-15T17:23:56;26.23;;;11.40;;
20814;SDS011;10568;48.176;16.316;2023-02-15T17:26:26;21.30;;;11.13;;
20814;SDS011;10568;48.176;16.316;2023-02-15T17:29:21;23.93;;;11.17;;
20814;SDS011;10568;48.176;16.316;2023-02-15T17:31:48;26.03;;;11.57;;